Time;durP1;ratioP1;P1;durP2;ratioP2;P2;SDS_P1;SDS_P2;PMS_P1;PMS_P2;Temp;Humidity;BMP_temperature;BMP_pressure;BME280_temperature;BME280_humidity;BME280_pressure;Samples;Min_cycle;Max_cycle;Signal;HPM_P1;HPM_P2
2022/08/14 00:04:00;;;;;;;4.78;3.80;;;18.30;99.90;;;;;;7300619;32;20119;-64
2022/08/14 00:08:22;;;;;;;8.85;4.22;;;18.20;99.90;;;;;;7299039;32;20242;-64
2022/08/14 00:12:53;;;;;;;5.22;4.15;;;18.30;99.90;;;;;;7307656;32;20358;-64
2022/08/14 00:16:57;;;;;;;4.70;4.20;;;18.30;99.90;;;;;;7319487;32;20118;-64
2022/08/14 00:21:02;;;;;;;4.97;4.37;;;18.20;99.90;;;;;;7322805;32;20096;-63
2022/08/14 00:25:06;;;;;;;9.02;4.55;;;18.20;99.90;;;;;;7314625;32;20115;-64
2022/08/14 00:29:07;;;;;;;5.10;4.35;;;18.10;99.90;;;;;;7324727;32;20232;-64
2022/08/14 00:33:09;;;;;;;11.12;4.82;;;18.00;99.90;;;;;;7320246;32;20123;-63
2022/08/14 00:37:16;;;;;;;5.00;4.60;;;18.00;99.90;;;;;;7315820;32;20668;-64
2022/08/14 00:41:18;;;;;;;5.57;5.00;;;18.00;99.90;;;;;;7319966;32;20247;-64
2022/08/14 00:45:21;;;;;;;5.40;4.82;;;18.00;99.90;;;;;;7300637;32;20179;-64
2022/08/14 00:49:22;;;;;;;7.25;5.15;;;18.00;99.90;;;;;;7313302;32;20153;-64
2022/08/14 00:53:25;;;;;;;7.03;4.18;;;17.90;99.90;;;;;;7306289;32;20135;-64
2022/08/14 00:57:32;;;;;;;8.60;5.05;;;17.70;99.90;;;;;;7301458;32;20348;-62
2022/08/14 01:01:37;;;;;;;10.02;4.87;;;17.60;99.90;;;;;;7318801;32;20229;-64
2022/08/14 01:05:48;;;;;;;6.40;4.57;;;17.50;99.90;;;;;;7321715;32;20126;-64
2022/08/14 01:09:57;;;;;;;8.93;5.57;;;17.40;99.90;;;;;;7311695;32;20116;-63
2022/08/14 01:14:00;;;;;;;8.60;5.45;;;17.30;99.90;;;;;;7312066;32;20202;-64
2022/08/14 01:22:40;;;;;;;10.82;5.32;;;17.10;99.90;;;;;;7313053;32;20673;-64
2022/08/14 01:26:45;;;;;;;6.60;5.22;;;17.00;99.90;;;;;;7320932;32;20176;-63
2022/08/14 01:30:56;;;;;;;8.57;5.10;;;17.00;99.90;;;;;;7315905;32;20154;-64
2022/08/14 01:34:58;;;;;;;8.37;5.60;;;16.90;99.90;;;;;;7311917;32;20869;-64
2022/08/14 01:39:20;;;;;;;8.88;5.32;;;16.90;99.90;;;;;;7308177;32;20100;-64
2022/08/14 01:43:22;;;;;;;10.82;6.32;;;16.90;99.90;;;;;;7321804;32;20103;-64
2022/08/14 01:47:29;;;;;;;7.68;5.87;;;16.90;99.90;;;;;;7310505;32;20253;-63
2022/08/14 01:51:42;;;;;;;10.05;6.00;;;16.90;99.90;;;;;;7297905;32;20157;-63
2022/08/14 01:55:44;;;;;;;8.02;6.43;;;16.90;99.90;;;;;;7304237;32;20169;-63
2022/08/14 01:59:49;;;;;;;9.90;6.18;;;16.90;99.90;;;;;;7311148;32;20180;-63
2022/08/14 02:03:51;;;;;;;8.23;6.10;;;17.00;99.90;;;;;;7309121;32;20100;-64
2022/08/14 02:07:57;;;;;;;6.85;6.15;;;17.10;99.90;;;;;;7298253;32;20108;-63
2022/08/14 02:12:19;;;;;;;6.87;6.00;;;17.10;99.90;;;;;;7308582;32;20131;-64
2022/08/14 02:16:37;;;;;;;9.30;6.57;;;17.30;99.90;;;;;;7318384;32;20333;-64
2022/08/14 02:20:39;;;;;;;8.18;6.50;;;17.40;99.90;;;;;;7299711;32;20214;-63
2022/08/14 02:24:42;;;;;;;8.18;7.00;;;17.50;99.90;;;;;;7297714;32;20096;-63
2022/08/14 02:28:52;;;;;;;6.95;6.35;;;17.60;99.90;;;;;;7308254;32;20103;-64
2022/08/14 02:33:04;;;;;;;7.18;6.47;;;17.70;99.90;;;;;;7315635;32;20111;-64
2022/08/14 02:37:16;;;;;;;10.95;6.75;;;17.60;99.90;;;;;;7323055;32;20123;-64
2022/08/14 02:41:18;;;;;;;7.30;6.55;;;17.70;99.90;;;;;;7302533;32;20183;-63
2022/08/14 02:45:21;;;;;;;8.63;7.15;;;17.60;99.90;;;;;;7307530;32;20510;-63
2022/08/14 02:49:27;;;;;;;10.80;6.85;;;17.70;99.90;;;;;;7309243;32;20142;-63
2022/08/14 02:53:38;;;;;;;10.23;7.40;;;17.60;99.90;;;;;;7322345;32;20214;-63
2022/08/14 02:57:43;;;;;;;7.80;6.22;;;17.60;99.90;;;;;;7306881;32;20149;-63
2022/08/14 03:01:45;;;;;;;7.53;6.78;;;17.50;99.90;;;;;;7310084;32;20428;-63
2022/08/14 03:05:55;;;;;;;7.97;6.65;;;17.30;99.90;;;;;;7315129;32;20179;-63
2022/08/14 03:09:58;;;;;;;11.75;7.20;;;17.10;99.90;;;;;;7318358;32;20301;-63
2022/08/14 03:14:23;;;;;;;9.85;7.43;;;16.90;99.90;;;;;;7297703;32;20182;-63
2022/08/14 03:18:29;;;;;;;10.10;7.05;;;16.80;99.90;;;;;;7300773;32;20172;-64
2022/08/14 03:22:33;;;;;;;8.82;7.35;;;16.80;99.90;;;;;;7311194;32;20508;-63
2022/08/14 03:26:37;;;;;;;9.10;7.97;;;16.70;99.90;;;;;;7313359;32;20257;-64
2022/08/14 03:30:40;;;;;;;9.48;8.48;;;16.60;99.90;;;;;;7306462;32;20174;-63
2022/08/14 03:34:45;;;;;;;9.13;8.20;;;16.50;99.90;;;;;;7319871;32;20129;-64
2022/08/14 03:38:58;;;;;;;8.93;8.10;;;16.50;99.90;;;;;;7326271;32;20337;-64
2022/08/14 03:43:20;;;;;;;10.00;7.82;;;16.50;99.90;;;;;;7315574;32;20104;-64
2022/08/14 03:47:22;;;;;;;10.32;8.63;;;16.50;99.90;;;;;;7327322;32;20100;-64
2022/08/14 03:51:44;;;;;;;10.68;8.18;;;16.30;99.90;;;;;;7311233;32;20091;-63
2022/08/14 03:55:47;;;;;;;9.10;8.10;;;16.30;99.90;;;;;;7311095;32;20190;-64
2022/08/14 03:59:53;;;;;;;10.55;7.82;;;16.20;99.90;;;;;;7308291;32;20141;-64
2022/08/14 04:04:05;;;;;;;11.43;8.63;;;16.10;99.90;;;;;;7311253;32;20100;-64
2022/08/14 04:08:08;;;;;;;9.77;8.80;;;16.00;99.90;;;;;;7315005;32;20593;-64
2022/08/14 04:12:30;;;;;;;10.88;9.20;;;15.90;99.90;;;;;;7323017;32;20108;-64
2022/08/14 04:16:33;;;;;;;13.88;9.55;;;15.80;99.90;;;;;;7309740;32;20108;-64
2022/08/14 04:20:35;;;;;;;11.18;9.38;;;15.80;99.90;;;;;;7309359;32;20510;-64
2022/08/14 04:24:52;;;;;;;10.10;8.97;;;15.80;99.90;;;;;;7299861;32;20202;-64
2022/08/14 04:28:54;;;;;;;14.20;9.90;;;15.80;99.90;;;;;;7310214;32;20104;-63
2022/08/14 04:33:15;;;;;;;9.98;8.90;;;15.80;99.90;;;;;;7326345;32;20095;-64
2022/08/14 04:46:16;;;;;;;10.15;9.15;;;15.70;99.90;;;;;;7312343;32;20566;-63
2022/08/14 04:50:47;;;;;;;11.43;9.38;;;15.70;99.90;;;;;;7298634;32;20511;-63
2022/08/14 04:54:55;;;;;;;11.60;9.13;;;15.60;99.90;;;;;;7304733;32;20112;-63
2022/08/14 04:59:00;;;;;;;13.05;9.00;;;15.70;99.90;;;;;;7320808;32;20206;-64
2022/08/14 05:03:04;;;;;;;;;;;15.80;99.90;;;;;;7315296;32;20249;-64
2022/08/14 05:07:08;;;;;;;9.45;8.52;;;16.00;99.90;;;;;;7323637;32;20033;-64
2022/08/14 05:11:10;;;;;;;9.10;8.07;;;16.30;99.90;;;;;;7321753;32;20504;-64
2022/08/14 05:15:14;;;;;;;9.75;8.00;;;16.40;99.90;;;;;;7309265;32;20207;-64
2022/08/14 05:19:22;;;;;;;10.60;8.55;;;16.50;99.90;;;;;;7300708;32;20759;-63
2022/08/14 05:23:32;;;;;;;10.75;9.05;;;16.50;99.90;;;;;;7314603;32;20239;-63
2022/08/14 05:27:35;;;;;;;11.80;10.55;;;16.50;99.90;;;;;;7303841;32;20124;-63
2022/08/14 05:31:39;;;;;;;12.60;10.15;;;16.60;99.90;;;;;;7323273;32;20264;-63
2022/08/14 05:35:43;;;;;;;10.55;9.27;;;16.60;99.90;;;;;;7316571;32;20130;-64
2022/08/14 05:39:47;;;;;;;12.75;9.38;;;16.70;99.90;;;;;;7295556;32;20214;-64
2022/08/14 05:43:49;;;;;;;11.43;9.65;;;16.80;99.90;;;;;;7307463;32;20108;-64
2022/08/14 05:47:51;;;;;;;10.57;9.30;;;16.90;99.90;;;;;;7319727;32;20186;-63
2022/08/14 05:51:54;;;;;;;10.88;9.82;;;17.00;99.90;;;;;;7298006;32;20161;-63
2022/08/14 05:55:59;;;;;;;10.90;9.80;;;17.10;99.90;;;;;;7312442;32;20198;-64
2022/08/14 06:00:00;;;;;;;10.18;9.18;;;17.20;99.90;;;;;;7307235;32;20108;-64
2022/08/14 06:04:03;;;;;;;9.70;8.63;;;17.30;99.90;;;;;;7299734;32;20179;-64
2022/08/14 06:08:27;;;;;;;10.00;8.95;;;17.60;99.90;;;;;;7301089;32;20107;-64
2022/08/14 06:12:42;;;;;;;10.18;8.75;;;17.80;99.90;;;;;;7315400;32;20184;-64
2022/08/14 06:16:57;;;;;;;11.02;8.82;;;18.10;99.90;;;;;;7321457;32;20324;-64
2022/08/14 06:21:01;;;;;;;9.40;8.60;;;18.50;99.90;;;;;;7305840;32;20125;-64
2022/08/14 06:25:03;;;;;;;9.88;8.88;;;18.70;99.90;;;;;;7309507;32;20123;-64
2022/08/14 06:29:06;;;;;;;10.07;8.98;;;18.90;99.90;;;;;;7299131;32;20107;-64
2022/08/14 06:33:08;;;;;;;9.57;8.52;;;19.20;99.90;;;;;;7309913;32;20108;-67
2022/08/14 06:37:09;;;;;;;9.77;8.60;;;19.50;99.90;;;;;;7313537;32;20135;-68
2022/08/14 06:41:12;;;;;;;12.13;8.27;;;19.60;99.90;;;;;;7314603;32;20112;-68
2022/08/14 06:45:21;;;;;;;9.15;7.90;;;20.00;99.90;;;;;;7303985;32;20175;-68
2022/08/14 06:49:27;;;;;;;8.63;7.83;;;20.30;99.90;;;;;;7298004;32;20210;-67
2022/08/14 06:53:31;;;;;;;10.07;8.13;;;20.60;99.90;;;;;;7308134;32;20107;-68
2022/08/14 06:57:41;;;;;;;8.07;7.28;;;20.80;99.90;;;;;;7318033;32;20141;-67
2022/08/14 07:06:03;;;;;;;7.80;7.10;;;21.20;99.90;;;;;;7297135;32;20147;-67
2022/08/14 07:10:22;;;;;;;8.27;7.47;;;21.60;99.90;;;;;;7323419;32;20324;-69
2022/08/14 07:14:26;;;;;;;7.97;7.18;;;21.70;99.90;;;;;;7316229;32;20115;-67
2022/08/14 07:18:30;;;;;;;7.93;7.12;;;22.00;99.90;;;;;;7316477;32;20210;-68
2022/08/14 07:22:31;;;;;;;7.50;6.87;;;22.20;99.90;;;;;;7317033;32;20918;-68
2022/08/14 07:26:53;;;;;;;9.43;6.78;;;22.40;99.90;;;;;;7315811;32;20108;-68
2022/08/14 07:30:57;;;;;;;7.53;6.78;;;22.60;99.90;;;;;;7303793;32;20252;-68
2022/08/14 07:35:06;;;;;;;15.23;13.15;;;22.70;99.90;;;;;;7308644;32;20427;-67
2022/08/14 07:39:09;;;;;;;10.70;9.40;;;22.80;99.90;;;;;;7313998;32;20119;-68
2022/08/14 07:43:14;;;;;;;11.32;10.10;;;23.00;99.90;;;;;;7307878;32;20119;-68
2022/08/14 07:47:16;;;;;;;6.43;5.72;;;23.00;99.90;;;;;;7308805;32;20534;-67
2022/08/14 07:51:19;;;;;;;8.82;6.65;;;23.40;99.90;;;;;;7307489;32;20137;-68
2022/08/14 07:55:20;;;;;;;7.37;5.93;;;23.50;99.90;;;;;;7308897;32;20108;-68
2022/08/14 07:59:23;;;;;;;6.45;5.85;;;23.80;99.90;;;;;;7296866;32;20684;-68
2022/08/14 08:03:45;;;;;;;6.45;5.85;;;23.80;99.90;;;;;;7315816;32;20103;-68
2022/08/14 08:07:54;;;;;;;9.23;5.60;;;23.80;99.90;;;;;;7307609;32;20135;-68
2022/08/14 08:11:57;;;;;;;6.37;5.65;;;24.10;99.90;;;;;;7318945;32;20103;-68
2022/08/14 08:15:58;;;;;;;5.87;5.37;;;24.30;99.90;;;;;;7317421;32;20656;-68
2022/08/14 08:20:01;;;;;;;18.60;16.58;;;24.60;99.90;;;;;;7306772;32;20127;-67
2022/08/14 08:24:03;;;;;;;7.03;5.50;;;24.70;99.90;;;;;;7315355;32;20435;-68
2022/08/14 08:28:30;;;;;;;6.22;5.53;;;25.10;99.90;;;;;;7312853;32;20243;-69
2022/08/14 08:32:42;;;;;;;7.13;5.30;;;25.30;99.90;;;;;;7318283;32;20127;-67
2022/08/14 08:36:44;;;;;;;6.62;5.25;;;25.40;99.90;;;;;;7300358;32;20116;-67
2022/08/14 08:40:49;;;;;;;5.50;4.90;;;25.60;99.90;;;;;;7318881;32;20598;-67
2022/08/14 08:44:54;;;;;;;10.55;5.18;;;25.80;99.90;;;;;;7320285;32;20271;-68
2022/08/14 08:48:56;;;;;;;7.78;4.97;;;26.30;99.90;;;;;;7320467;32;20244;-68
2022/08/14 08:53:05;;;;;;;4.75;4.40;;;26.90;99.90;;;;;;7319681;32;20108;-68
2022/08/14 08:57:11;;;;;;;6.22;4.93;;;27.80;99.90;;;;;;7311590;32;20120;-68
2022/08/14 09:01:28;;;;;;;6.87;4.35;;;28.70;99.90;;;;;;7315096;32;20112;-68
2022/08/14 09:05:32;;;;;;;5.15;3.80;;;29.80;99.90;;;;;;7313227;32;20465;-68
2022/08/14 09:09:50;;;;;;;4.20;3.72;;;30.80;98.10;;;;;;7311870;32;20196;-69
2022/08/14 09:13:59;;;;;;;3.75;3.45;;;31.30;93.70;;;;;;7303540;32;20284;-69
2022/08/14 09:18:01;;;;;;;4.97;3.30;;;32.00;93.70;;;;;;7310327;32;20135;-68
2022/08/14 09:22:04;;;;;;;5.40;3.17;;;32.40;90.70;;;;;;7309458;32;20099;-68
2022/08/14 09:26:26;;;;;;;4.40;3.70;;;33.20;86.80;;;;;;7321633;32;20134;-69
2022/08/14 09:30:31;;;;;;;6.93;3.50;;;33.20;83.40;;;;;;7320145;32;20120;-68
2022/08/14 09:34:40;;;;;;;5.45;3.28;;;32.40;77.50;;;;;;7319451;32;20582;-68
2022/08/14 09:39:05;;;;;;;6.25;3.53;;;30.70;78.70;;;;;;7316398;32;20501;-69
2022/08/14 09:43:42;;;;;;;4.57;3.37;;;31.80;82.80;;;;;;7316751;32;20214;-68
2022/08/14 09:47:53;;;;;;;6.03;3.47;;;32.10;76.80;;;;;;7292716;32;20107;-68
2022/08/14 09:52:04;;;;;;;6.57;3.83;;;32.10;81.10;;;;;;7307420;32;20191;-68
2022/08/14 09:56:25;;;;;;;5.28;4.53;;;32.80;76.10;;;;;;7310953;32;20104;-68
2022/08/14 10:01:00;;;;;;;4.43;3.72;;;33.40;77.60;;;;;;7319385;32;20162;-68
2022/08/14 10:05:02;;;;;;;6.62;3.83;;;32.80;71.10;;;;;;7307730;32;20145;-68
2022/08/14 10:09:05;;;;;;;6.10;3.37;;;31.60;74.10;;;;;;7315025;32;20226;-68
2022/08/14 10:13:24;;;;;;;4.82;3.50;;;31.10;72.40;;;;;;7319259;32;20423;-68
2022/08/14 10:17:28;;;;;;;5.80;3.10;;;32.10;73.90;;;;;;7320674;32;20115;-68
2022/08/14 10:21:42;;;;;;;4.72;3.42;;;32.00;72.20;;;;;;7311177;32;20526;-68
2022/08/14 10:26:08;;;;;;;6.10;3.67;;;32.30;72.70;;;;;;7305141;32;20108;-68
2022/08/14 10:30:19;;;;;;;4.07;3.67;;;32.50;68.40;;;;;;7298098;32;20564;-67
2022/08/14 10:34:38;;;;;;;3.97;3.47;;;33.50;66.80;;;;;;7312444;32;20157;-68
2022/08/14 10:38:41;;;;;;;3.80;3.40;;;31.40;67.20;;;;;;7309348;32;20545;-68
2022/08/14 10:42:51;;;;;;;5.18;3.50;;;32.20;70.20;;;;;;7320693;32;20265;-68
2022/08/14 10:47:01;;;;;;;9.73;4.62;;;32.80;68.80;;;;;;7305703;32;20333;-68
2022/08/14 10:51:25;;;;;;;5.95;3.62;;;32.30;67.20;;;;;;7305378;32;20119;-68
2022/08/14 10:55:38;;;;;;;3.80;3.50;;;32.60;65.30;;;;;;7310941;32;20137;-68
2022/08/14 10:59:58;;;;;;;8.18;3.85;;;32.20;67.40;;;;;;7310878;32;20267;-68
2022/08/14 11:04:01;;;;;;;3.85;3.53;;;32.10;68.50;;;;;;7303204;32;20665;-69
2022/08/14 11:08:04;;;;;;;4.55;3.70;;;32.40;70.20;;;;;;7300090;32;20545;-69
2022/08/14 11:12:13;;;;;;;3.47;3.17;;;32.60;68.80;;;;;;7309565;32;20122;-69
2022/08/14 11:16:39;;;;;;;4.55;3.92;;;32.20;67.10;;;;;;7320102;32;20443;-68
2022/08/14 11:20:53;;;;;;;4.75;3.40;;;32.60;65.90;;;;;;7317648;32;20111;-69
2022/08/14 11:25:03;;;;;;;5.68;3.87;;;31.90;66.10;;;;;;7311448;32;20183;-68
2022/08/14 11:29:09;;;;;;;6.10;3.50;;;31.90;71.30;;;;;;7308295;32;20151;-68
2022/08/14 11:33:11;;;;;;;4.12;3.65;;;32.00;67.10;;;;;;7318206;32;20140;-68
2022/08/14 11:37:14;;;;;;;8.35;4.60;;;32.10;69.30;;;;;;7319418;32;20158;-68
2022/08/14 11:41:27;;;;;;;4.87;4.37;;;31.10;71.20;;;;;;7319052;32;20619;-68
2022/08/14 11:45:33;;;;;;;4.87;4.40;;;31.00;72.10;;;;;;7311904;32;20586;-69
2022/08/14 11:49:39;;;;;;;8.57;4.45;;;31.20;71.50;;;;;;7322041;32;20137;-69
2022/08/14 11:53:42;;;;;;;4.53;3.92;;;30.90;70.30;;;;;;7322338;32;20519;-69
2022/08/14 11:57:57;;;;;;;3.97;3.60;;;30.80;78.00;;;;;;7322975;32;20525;-69
2022/08/14 12:02:13;;;;;;;4.00;3.60;;;30.80;74.30;;;;;;7322433;32;20200;-68
2022/08/14 12:06:54;;;;;;;5.32;3.33;;;31.00;72.00;;;;;;7322792;32;20196;-69
2022/08/14 12:10:57;;;;;;;4.25;3.55;;;31.30;68.10;;;;;;7323939;32;20179;-68
2022/08/14 12:14:59;;;;;;;3.78;3.15;;;30.70;70.40;;;;;;7323502;32;20270;-69
2022/08/14 12:19:01;;;;;;;4.43;3.70;;;30.90;71.40;;;;;;7322599;32;20131;-69
2022/08/14 12:23:06;;;;;;;5.47;3.33;;;30.90;70.90;;;;;;7312551;32;21008;-64
2022/08/14 12:27:11;;;;;;;4.18;3.78;;;31.00;71.20;;;;;;7314296;32;20302;-64
2022/08/14 12:31:19;;;;;;;3.83;3.03;;;31.00;67.50;;;;;;7325195;32;20162;-64
2022/08/14 12:35:24;;;;;;;3.67;3.33;;;31.00;68.10;;;;;;7314173;32;20111;-64
2022/08/14 12:39:26;;;;;;;4.45;3.58;;;31.00;68.80;;;;;;7318713;32;20115;-64
2022/08/14 12:43:28;;;;;;;5.12;3.70;;;30.60;68.90;;;;;;7324708;32;20738;-63
2022/08/14 12:47:30;;;;;;;4.40;3.20;;;30.60;67.50;;;;;;7302448;32;20119;-64
2022/08/14 12:51:34;;;;;;;7.53;3.53;;;30.70;69.60;;;;;;7305659;32;20155;-64
2022/08/14 12:55:37;;;;;;;4.72;3.22;;;30.80;67.90;;;;;;7309895;32;20156;-64
2022/08/14 13:00:25;;;;;;;4.47;3.42;;;30.70;65.80;;;;;;7311498;32;20694;-64
2022/08/14 13:04:30;;;;;;;5.85;3.30;;;31.00;68.00;;;;;;7309123;32;20172;-64
2022/08/14 13:08:32;;;;;;;3.50;3.20;;;30.80;64.70;;;;;;7317160;32;20157;-64
2022/08/14 13:12:37;;;;;;;7.00;3.25;;;31.10;68.30;;;;;;7310453;32;20237;-64
2022/08/14 13:17:03;;;;;;;3.25;2.95;;;31.50;67.60;;;;;;7303306;32;20230;-63
2022/08/14 13:21:06;;;;;;;4.57;3.25;;;31.50;65.30;;;;;;7312980;32;20502;-64
2022/08/14 13:25:19;;;;;;;6.30;3.40;;;31.80;65.00;;;;;;7323914;32;20103;-64
2022/08/14 13:29:25;;;;;;;3.22;2.70;;;31.90;65.40;;;;;;7298101;32;20122;-64
2022/08/14 13:33:31;;;;;;;5.25;3.20;;;32.00;64.60;;;;;;7300030;32;20130;-64
2022/08/14 13:37:33;;;;;;;3.22;2.72;;;32.10;63.90;;;;;;7322860;32;20111;-63
2022/08/14 13:41:36;;;;;;;3.35;3.05;;;32.60;66.10;;;;;;7319098;32;20326;-64
2022/08/14 13:45:38;;;;;;;5.07;3.20;;;32.90;62.00;;;;;;7307392;32;20203;-64
2022/08/14 13:50:03;;;;;;;2.80;2.50;;;33.00;59.70;;;;;;7298304;32;20215;-64
2022/08/14 13:54:06;;;;;;;3.12;2.78;;;32.70;61.00;;;;;;7304047;32;20142;-65
2022/08/14 13:58:13;;;;;;;;;;;32.40;60.20;;;;;;7304488;32;20279;-64
2022/08/14 14:02:46;;;;;;;3.60;3.30;;;32.20;63.10;;;;;;7304481;32;20045;-64
2022/08/14 14:06:50;;;;;;;4.18;3.17;;;31.30;61.80;;;;;;7312219;32;20131;-65
2022/08/14 14:10:54;;;;;;;5.03;3.00;;;31.60;62.10;;;;;;7321231;32;20119;-65
2022/08/14 14:14:59;;;;;;;4.15;3.35;;;31.50;63.50;;;;;;7309940;32;20222;-64
2022/08/14 14:19:06;;;;;;;3.90;3.33;;;31.50;62.20;;;;;;7297842;32;20583;-64
2022/08/14 14:23:14;;;;;;;4.12;2.97;;;31.60;62.50;;;;;;7308958;32;20304;-64
2022/08/14 14:27:19;;;;;;;4.20;3.10;;;31.70;66.20;;;;;;7316335;32;20122;-64
2022/08/14 14:31:41;;;;;;;4.55;3.15;;;31.60;63.10;;;;;;7299823;32;20112;-64
2022/08/14 14:35:44;;;;;;;3.37;3.08;;;31.80;62.00;;;;;;7297292;32;20148;-64
2022/08/14 14:39:49;;;;;;;4.70;3.30;;;32.00;62.30;;;;;;7297610;32;20497;-64
2022/08/14 14:44:12;;;;;;;3.42;3.12;;;32.30;62.90;;;;;;7291156;32;20120;-64
2022/08/14 14:48:18;;;;;;;3.97;3.12;;;32.70;63.30;;;;;;7323334;32;20123;-64
2022/08/14 14:52:22;;;;;;;4.10;3.75;;;32.50;62.50;;;;;;7322830;32;20173;-64
2022/08/14 14:56:30;;;;;;;3.00;2.80;;;32.30;61.90;;;;;;7291637;32;20148;-64
2022/08/14 15:00:58;;;;;;;5.45;4.00;;;31.10;63.60;;;;;;7303667;32;20311;-64
2022/08/14 15:05:00;;;;;;;4.20;3.80;;;30.90;64.20;;;;;;7307837;32;20546;-64
2022/08/14 15:09:03;;;;;;;3.70;3.40;;;30.50;64.50;;;;;;7310599;32;20265;-64
2022/08/14 15:13:09;;;;;;;;;;;30.40;65.80;;;;;;7315299;32;20124;-64
2022/08/14 15:17:11;;;;;;;4.05;3.25;;;30.10;65.80;;;;;;7318323;32;20015;-64
2022/08/14 15:21:13;;;;;;;6.15;3.47;;;29.80;67.30;;;;;;7302415;32;20127;-65
2022/08/14 15:25:16;;;;;;;5.20;3.17;;;29.80;68.20;;;;;;7301541;32;20218;-64
2022/08/14 15:29:39;;;;;;;3.97;3.35;;;29.70;68.80;;;;;;7301399;32;20112;-63
2022/08/14 15:38:24;;;;;;;4.70;3.05;;;29.30;70.50;;;;;;7316751;32;20139;-64
2022/08/14 15:42:31;;;;;;;3.53;3.22;;;29.50;68.40;;;;;;7316116;32;20103;-63
2022/08/14 15:46:34;;;;;;;3.80;3.45;;;29.70;69.90;;;;;;7305634;32;20704;-64
2022/08/14 15:50:46;;;;;;;5.05;3.42;;;29.60;70.30;;;;;;7324347;32;20199;-63
2022/08/14 15:54:51;;;;;;;5.20;2.72;;;29.50;71.20;;;;;;7322471;32;20196;-63
2022/08/14 15:58:53;;;;;;;3.47;3.00;;;29.50;71.60;;;;;;7313793;32;20137;-64
2022/08/14 16:02:55;;;;;;;4.10;3.70;;;29.40;72.50;;;;;;7302893;32;20108;-64
2022/08/14 16:06:57;;;;;;;4.18;3.78;;;29.60;69.00;;;;;;7311019;32;20243;-64
2022/08/14 16:11:02;;;;;;;4.87;4.03;;;29.60;70.30;;;;;;7320758;32;20234;-64
2022/08/14 16:15:04;;;;;;;3.87;3.53;;;29.50;74.50;;;;;;7300604;32;20493;-64
2022/08/14 16:19:10;;;;;;;;;;;29.50;70.50;;;;;;7301652;32;20256;-64
2022/08/14 16:23:16;;;;;;;5.62;3.00;;;29.50;70.50;;;;;;7316219;32;20212;-64
2022/08/14 16:27:22;;;;;;;3.62;3.30;;;29.70;70.20;;;;;;7319671;32;20096;-64
2022/08/14 16:31:42;;;;;;;5.47;3.10;;;29.80;69.40;;;;;;7319396;32;20343;-65
2022/08/14 16:35:44;;;;;;;4.25;3.40;;;29.90;70.50;;;;;;7321792;32;20128;-69
2022/08/14 16:40:01;;;;;;;3.40;3.10;;;29.90;70.30;;;;;;7323416;32;20213;-67
2022/08/14 16:44:10;;;;;;;4.78;3.35;;;29.80;71.30;;;;;;7323657;32;20145;-68
2022/08/14 16:48:32;;;;;;;4.20;3.40;;;30.10;70.10;;;;;;7305055;32;20123;-68
2022/08/14 16:52:54;;;;;;;3.17;2.83;;;29.90;67.00;;;;;;7323684;32;20136;-69
2022/08/14 16:57:22;;;;;;;5.87;3.00;;;30.00;68.40;;;;;;7316733;32;20677;-70
2022/08/14 17:01:24;;;;;;;3.20;2.90;;;29.80;66.40;;;;;;7315285;32;20607;-71
2022/08/14 17:05:28;;;;;;;3.75;3.40;;;29.80;66.90;;;;;;7316632;32;20133;-72
2022/08/14 17:09:37;;;;;;;3.03;2.80;;;29.80;66.50;;;;;;7320666;32;20530;-70
2022/08/14 17:13:44;;;;;;;3.47;3.10;;;29.80;66.10;;;;;;7321577;32;20119;-70
2022/08/14 17:18:01;;;;;;;2.90;2.67;;;29.80;66.00;;;;;;7318808;32;20140;-71
2022/08/14 17:22:08;;;;;;;4.60;3.17;;;29.80;67.40;;;;;;7322098;32;20171;-71
2022/08/14 17:26:32;;;;;;;3.25;2.95;;;30.00;67.60;;;;;;7331639;32;20130;-71
2022/08/14 17:30:55;;;;;;;4.18;3.15;;;29.80;68.70;;;;;;7314823;32;20144;-67
2022/08/14 17:34:59;;;;;;;4.22;2.90;;;29.70;69.40;;;;;;7319155;32;20919;-68
2022/08/14 17:39:16;;;;;;;3.22;2.80;;;29.50;73.30;;;;;;7322253;32;20124;-69
2022/08/14 17:43:18;;;;;;;4.53;2.90;;;29.30;70.00;;;;;;7323736;32;20157;-68
2022/08/14 17:47:25;;;;;;;4.03;3.20;;;29.20;71.70;;;;;;7320473;32;20602;-69
2022/08/14 17:51:27;;;;;;;4.85;3.15;;;29.00;72.30;;;;;;7315153;32;20159;-69
2022/08/14 17:55:32;;;;;;;4.75;2.80;;;28.90;72.70;;;;;;7319197;32;20358;-69
2022/08/14 17:59:54;;;;;;;18.50;16.33;;;28.70;73.90;;;;;;7313378;32;20127;-69
2022/08/14 18:03:59;;;;;;;3.37;2.67;;;28.50;73.00;;;;;;7323423;32;20213;-69
2022/08/14 18:08:23;;;;;;;4.75;2.30;;;28.40;75.00;;;;;;7322961;32;20432;-69
2022/08/14 18:12:41;;;;;;;3.40;2.72;;;28.20;76.70;;;;;;7317832;32;20195;-69
2022/08/14 18:16:45;;;;;;;4.30;2.53;;;28.00;77.60;;;;;;7312893;32;20176;-71
2022/08/14 18:20:53;;;;;;;4.78;3.08;;;27.80;79.20;;;;;;7316729;32;20165;-70
2022/08/14 18:25:15;;;;;;;4.00;2.80;;;27.70;81.90;;;;;;7313649;32;20539;-70
2022/08/14 18:29:24;;;;;;;4.35;2.72;;;27.40;84.10;;;;;;7314550;32;20155;-69
2022/08/14 18:33:34;;;;;;;4.07;2.95;;;27.30;86.50;;;;;;7323267;32;20290;-67
2022/08/14 18:37:44;;;;;;;5.65;2.97;;;26.90;90.30;;;;;;7309505;32;20127;-68
2022/08/14 18:42:04;;;;;;;7.17;3.27;;;26.60;92.30;;;;;;7321106;32;20152;-68
2022/08/14 18:46:25;;;;;;;7.45;3.22;;;26.30;94.10;;;;;;7313240;32;20134;-67
2022/08/14 18:50:47;;;;;;;4.70;3.25;;;26.00;95.40;;;;;;7309675;32;20567;-69
2022/08/14 18:54:52;;;;;;;4.13;3.70;;;25.80;96.10;;;;;;7320027;32;20111;-69
2022/08/14 18:59:00;;;;;;;4.45;4.05;;;25.60;96.40;;;;;;7320422;32;20205;-69
2022/08/14 19:03:05;;;;;;;6.60;3.80;;;25.50;98.30;;;;;;7322919;32;20314;-70
2022/08/14 19:07:17;;;;;;;8.48;3.22;;;25.30;99.90;;;;;;7318484;32;20223;-64
2022/08/14 19:11:33;;;;;;;7.72;3.50;;;25.10;99.90;;;;;;7319688;32;20115;-65
2022/08/14 19:15:37;;;;;;;7.40;3.58;;;24.80;99.90;;;;;;7317858;32;20126;-65
2022/08/14 19:19:39;;;;;;;9.70;4.05;;;24.50;99.90;;;;;;7320994;32;20179;-64
2022/08/14 19:24:10;;;;;;;7.50;3.58;;;24.30;99.90;;;;;;7321572;32;20118;-63
2022/08/14 19:28:42;;;;;;;4.47;3.97;;;24.10;99.90;;;;;;7317252;32;20572;-67
2022/08/14 19:32:44;;;;;;;6.53;3.65;;;23.90;99.90;;;;;;7316668;32;20111;-68
2022/08/14 19:36:53;;;;;;;5.65;4.10;;;23.80;99.90;;;;;;7308338;32;20130;-66
2022/08/14 19:41:15;;;;;;;5.90;3.97;;;23.70;99.90;;;;;;7314476;32;20249;-67
2022/08/14 19:45:17;;;;;;;8.13;4.18;;;23.60;99.90;;;;;;7318839;32;20202;-67
2022/08/14 19:49:30;;;;;;;5.30;4.03;;;23.50;99.90;;;;;;7310073;32;20116;-66
2022/08/14 19:53:57;;;;;;;8.48;4.70;;;23.30;99.90;;;;;;7317380;32;20192;-66
2022/08/14 19:58:00;;;;;;;12.57;6.50;;;23.20;99.90;;;;;;7310768;32;20203;-65
2022/08/14 20:02:02;;;;;;;12.37;7.65;;;23.10;99.90;;;;;;7313812;32;20127;-65
2022/08/14 20:06:07;;;;;;;5.40;4.60;;;22.90;99.90;;;;;;7322810;32;20111;-65
2022/08/14 20:10:34;;;;;;;8.65;4.60;;;22.80;99.90;;;;;;7314923;32;20107;-64
2022/08/14 20:15:03;;;;;;;8.68;4.62;;;22.60;99.90;;;;;;7314125;32;20166;-64
2022/08/14 20:19:16;;;;;;;5.40;4.35;;;22.50;99.90;;;;;;7316665;32;20159;-65
2022/08/14 20:23:18;;;;;;;10.95;4.95;;;22.50;99.90;;;;;;7319353;32;20134;-65
2022/08/14 20:27:28;;;;;;;4.95;4.15;;;22.40;99.90;;;;;;7322343;32;20239;-65
2022/08/14 20:31:36;;;;;;;5.20;4.70;;;22.30;99.90;;;;;;7315732;32;20375;-65
2022/08/14 20:35:50;;;;;;;5.03;4.53;;;22.30;99.90;;;;;;7316871;32;20126;-66
2022/08/14 20:39:54;;;;;;;6.87;4.30;;;22.30;99.90;;;;;;7320956;32;20179;-65
2022/08/14 20:48:26;;;;;;;8.02;4.95;;;22.20;99.90;;;;;;7317764;32;20793;-64
2022/08/14 20:52:48;;;;;;;8.27;4.95;;;22.20;99.90;;;;;;7321206;32;20143;-64
2022/08/14 20:56:52;;;;;;;7.22;4.95;;;22.10;99.90;;;;;;7319627;32;20148;-61
2022/08/14 21:00:59;;;;;;;5.35;4.70;;;22.00;99.90;;;;;;7315292;32;20174;-62
2022/08/14 21:05:05;;;;;;;4.93;4.43;;;22.00;99.90;;;;;;7316859;32;20633;-63
2022/08/14 21:09:24;;;;;;;7.18;4.32;;;22.00;99.90;;;;;;7311992;32;21146;-63
2022/08/14 21:13:47;;;;;;;6.80;4.85;;;21.90;99.90;;;;;;7321032;32;20126;-62
2022/08/14 21:18:12;;;;;;;5.90;4.70;;;21.80;99.90;;;;;;7313071;32;20460;-63
2022/08/14 21:22:17;;;;;;;9.02;6.03;;;21.80;99.90;;;;;;7310858;32;20112;-63
2022/08/14 21:26:21;;;;;;;9.07;4.82;;;21.70;99.90;;;;;;7314469;32;20500;-63
2022/08/14 21:30:43;;;;;;;10.95;4.85;;;21.60;99.90;;;;;;7313295;32;20139;-61
2022/08/14 21:34:53;;;;;;;7.22;4.55;;;21.50;99.90;;;;;;7311556;32;20112;-63
2022/08/14 21:38:57;;;;;;;5.18;4.78;;;21.60;99.90;;;;;;7318070;32;20127;-62
2022/08/14 21:42:59;;;;;;;5.75;4.68;;;21.50;99.90;;;;;;7314199;32;20805;-62
2022/08/14 21:47:01;;;;;;;6.03;5.03;;;21.50;99.90;;;;;;7307941;32;20214;-62
2022/08/14 21:51:04;;;;;;;5.22;4.70;;;21.40;99.90;;;;;;7312304;32;20819;-62
2022/08/14 21:55:26;;;;;;;6.03;5.20;;;21.20;99.90;;;;;;7307053;32;20096;-63
2022/08/14 21:59:33;;;;;;;5.90;5.30;;;21.20;99.90;;;;;;7315856;32;20140;-64
2022/08/14 22:03:36;;;;;;;9.13;5.22;;;21.20;99.90;;;;;;7308227;32;20282;-63